createdAt,value
2019-05-01T00:04:11.065Z,97139.45
2019-05-01T00:06:40.847Z,97132.72
2019-05-01T00:09:08.299Z,97139.31
2019-05-01T00:11:35.743Z,97135.28
2019-05-01T00:14:03.188Z,97130.72
2019-05-01T00:16:30.676Z,97130.39
2019-05-01T00:18:58.284Z,97129.47
2019-05-01T00:21:25.736Z,97122.71
2019-05-01T00:23:53.192Z,97124.27
2019-05-01T00:26:20.642Z,97119.59
2019-05-01T00:28:48.150Z,97124.12
2019-05-01T00:31:15.603Z,97120.82
2019-05-01T00:33:43.080Z,97113.76
2019-05-01T00:36:10.518Z,97105.41
2019-05-01T00:38:37.966Z,97102.49
2019-05-01T00:41:05.514Z,97101.39
2019-05-01T00:43:33.017Z,97099.39
2019-05-01T00:46:00.478Z,97098.77
2019-05-01T00:48:27.931Z,97094.05
2019-05-01T00:50:55.371Z,97088.39
2019-05-01T00:53:22.814Z,97093.11
2019-05-01T00:55:50.705Z,97096.73
2019-05-01T00:58:21.171Z,97091.08
2019-05-01T01:00:48.634Z,97086.48
2019-05-01T01:03:16.086Z,97085.98
2019-05-01T01:05:43.600Z,97082.23
2019-05-01T01:08:11.051Z,97076.30
2019-05-01T01:10:38.544Z,97077.09
2019-05-01T01:13:06.023Z,97077.39
2019-05-01T01:15:33.487Z,97077.75
2019-05-01T01:18:00.942Z,97077.42
2019-05-01T01:20:28.383Z,97074.41
2019-05-01T01:22:55.838Z,97074.25
2019-05-01T01:25:23.328Z,97068.50
2019-05-01T01:27:50.782Z,97062.91
2019-05-01T01:30:18.243Z,97070.50
2019-05-01T01:32:45.714Z,97061.09
2019-05-01T01:35:13.194Z,97066.13
2019-05-01T01:37:40.644Z,97066.21
2019-05-01T01:40:08.167Z,97068.27
2019-05-01T01:42:35.616Z,97060.31
2019-05-01T01:45:06.557Z,97064.94
2019-05-01T01:47:34.028Z,97060.91
2019-05-01T01:50:01.588Z,97060.64
2019-05-01T01:52:29.334Z,97060.97
2019-05-01T01:54:56.928Z,97054.09
2019-05-01T01:57:24.367Z,97055.44
2019-05-01T01:59:51.856Z,97055.67
2019-05-01T02:02:24.955Z,97056.84
2019-05-01T02:05:06.918Z,97055.66
2019-05-01T02:07:34.363Z,97058.12
2019-05-01T02:10:01.818Z,97055.72
2019-05-01T02:12:29.267Z,97055.78
2019-05-01T02:14:56.712Z,97061.98
2019-05-01T02:17:24.188Z,97058.17
2019-05-01T02:19:51.634Z,97047.56
2019-05-01T02:22:19.080Z,97047.88
2019-05-01T02:24:46.095Z,97045.69
2019-05-01T02:27:16.617Z,97042.78
2019-05-01T02:29:44.076Z,97043.80
2019-05-01T02:32:11.540Z,97043.87
2019-05-01T02:34:38.992Z,97043.83
2019-05-01T02:37:05.979Z,97045.00
2019-05-01T02:39:33.423Z,97045.89
2019-05-01T02:42:00.427Z,97041.16
2019-05-01T02:44:27.419Z,97047.11
2019-05-01T02:46:54.449Z,97046.45
2019-05-01T02:49:21.445Z,97040.23
2019-05-01T02:51:48.488Z,97041.16
2019-05-01T02:54:15.468Z,97035.20
2019-05-01T02:56:44.071Z,97038.84
2019-05-01T02:59:11.067Z,97031.48
2019-05-01T03:01:46.950Z,97031.83
2019-05-01T03:04:05.194Z,97030.69
2019-05-01T03:06:32.216Z,97039.95
2019-05-01T03:08:59.248Z,97042.98
2019-05-01T03:11:26.248Z,97041.31
2019-05-01T03:13:53.251Z,97034.55
2019-05-01T03:16:20.251Z,97035.33
2019-05-01T03:18:48.847Z,97029.53
2019-05-01T03:21:23.517Z,97031.96
2019-05-01T03:24:00.476Z,97040.42
2019-05-01T03:26:27.464Z,97027.55
2019-05-01T03:28:54.459Z,97032.65
2019-05-01T03:31:21.472Z,97030.78
2019-05-01T03:33:48.515Z,97019.57
2019-05-01T03:36:15.509Z,97033.47
2019-05-01T03:38:42.499Z,97022.66
2019-05-01T03:41:09.509Z,97024.95
2019-05-01T03:43:36.510Z,97028.50
2019-05-01T03:46:03.590Z,97026.66
2019-05-01T03:48:30.603Z,97020.31
2019-05-01T03:50:57.599Z,97025.39
2019-05-01T03:53:25.155Z,97016.56
2019-05-01T03:55:52.692Z,97017.28
2019-05-01T03:58:20.201Z,97020.43
2019-05-01T04:00:50.315Z,97016.80
2019-05-01T04:03:32.669Z,97010.52
2019-05-01T04:06:00.112Z,97019.14
2019-05-01T04:08:27.559Z,97012.92
2019-05-01T04:10:55.005Z,97009.97
2019-05-01T04:13:22.465Z,97014.56
2019-05-01T04:15:49.939Z,97017.86
2019-05-01T04:18:17.394Z,97010.65
2019-05-01T04:20:44.832Z,97018.09
2019-05-01T04:23:12.282Z,97013.70
2019-05-01T04:25:39.739Z,97021.20
2019-05-01T04:31:05.057Z,97018.66
2019-05-01T04:33:32.567Z,97019.63
2019-05-01T04:36:02.097Z,97027.83
2019-05-01T04:38:29.562Z,97029.86
2019-05-01T04:40:57.018Z,97028.36
2019-05-01T04:43:24.463Z,97024.10
2019-05-01T04:45:51.916Z,97029.19
2019-05-01T04:48:19.512Z,97033.81
2019-05-01T04:50:46.970Z,97030.02
2019-05-01T04:53:14.457Z,97033.73
2019-05-01T04:55:41.925Z,97033.38
2019-05-01T04:58:09.374Z,97034.08
2019-05-01T05:00:36.828Z,97036.27
2019-05-01T05:03:06.865Z,97039.19
2019-05-01T05:05:34.311Z,97036.56
2019-05-01T05:08:01.769Z,97042.05
2019-05-01T05:10:29.240Z,97036.91
2019-05-01T05:12:56.700Z,97041.73
2019-05-01T05:15:34.253Z,97041.55
2019-05-01T05:18:02.209Z,97047.50
2019-05-01T05:20:29.653Z,97049.48
2019-05-01T05:22:57.106Z,97051.31
2019-05-01T05:25:24.592Z,97045.45
2019-05-01T05:27:52.039Z,97052.27
2019-05-01T05:30:19.503Z,97052.03
2019-05-01T05:32:46.954Z,97059.06
2019-05-01T05:35:14.396Z,97054.02
2019-05-01T05:40:34.895Z,97060.22
2019-05-01T05:43:02.371Z,97056.00
2019-05-01T05:45:29.821Z,97058.47
2019-05-01T05:47:57.279Z,97055.91
2019-05-01T05:50:27.540Z,97059.55
2019-05-01T05:52:58.609Z,97059.61
2019-05-01T05:55:31.592Z,97058.72
2019-05-01T05:57:59.047Z,97056.39
2019-05-01T06:00:28.218Z,97057.23
2019-05-01T06:02:56.650Z,97060.59
2019-05-01T06:08:16.834Z,97065.94
2019-05-01T06:10:44.290Z,97064.12
2019-05-01T06:13:18.003Z,97065.41
2019-05-01T06:15:50.594Z,97068.27
2019-05-01T06:18:19.497Z,97062.48
2019-05-01T06:20:46.987Z,97064.22
2019-05-01T06:23:15.666Z,97066.28
2019-05-01T06:25:43.456Z,97065.72
2019-05-01T06:28:10.931Z,97066.48
2019-05-01T06:30:41.998Z,97061.36
2019-05-01T06:33:09.325Z,97061.30
2019-05-01T06:35:33.983Z,97065.35
2019-05-01T06:38:02.314Z,97062.14
2019-05-01T06:40:34.281Z,97062.78
2019-05-01T06:43:01.784Z,97064.84
2019-05-01T06:45:29.339Z,97061.72
2019-05-01T06:47:57.263Z,97055.92
2019-05-01T06:50:28.130Z,97052.84
2019-05-01T06:52:55.586Z,97058.02
2019-05-01T06:55:27.181Z,97052.71
2019-05-01T06:57:52.590Z,97059.05
2019-05-01T07:00:20.112Z,97057.45
2019-05-01T07:02:47.560Z,97060.78
2019-05-01T07:05:16.502Z,97068.04
2019-05-01T07:07:43.233Z,97061.20
2019-05-01T07:10:10.568Z,97064.09
2019-05-01T07:12:38.073Z,97062.62
2019-05-01T07:15:05.534Z,97061.03
2019-05-01T07:17:33.117Z,97061.63
2019-05-01T07:20:01.155Z,97058.55
2019-05-01T07:22:28.667Z,97055.11
2019-05-01T07:24:59.020Z,97052.37
2019-05-01T07:27:25.094Z,97052.53
2019-05-01T07:29:51.239Z,97058.71
2019-05-01T07:32:18.720Z,97054.27
2019-05-01T07:34:48.879Z,97052.05
2019-05-01T07:37:13.860Z,97052.45
2019-05-01T07:39:44.806Z,97047.98
2019-05-01T07:42:14.313Z,97053.94
2019-05-01T07:44:41.787Z,97047.70
2019-05-01T07:47:14.902Z,97051.86
2019-05-01T07:49:53.154Z,97057.16
2019-05-01T07:52:19.998Z,97051.30
2019-05-01T07:54:47.450Z,97048.02
2019-05-01T07:57:14.920Z,97053.72
2019-05-01T07:59:42.416Z,97055.22
2019-05-01T08:02:10.020Z,97049.70
2019-05-01T08:04:37.546Z,97051.06
2019-05-01T08:07:05.047Z,97052.86
2019-05-01T08:09:32.506Z,97054.56
2019-05-01T08:11:59.969Z,97049.89
2019-05-01T08:14:27.427Z,97044.78
2019-05-01T08:16:54.978Z,97042.26
2019-05-01T08:19:25.135Z,97052.00
2019-05-01T08:22:08.231Z,97051.84
2019-05-01T08:24:35.734Z,97047.14
2019-05-01T08:27:03.195Z,97047.38
2019-05-01T08:29:36.978Z,97042.14
2019-05-01T08:32:07.726Z,97043.61
2019-05-01T08:34:47.856Z,97046.22
2019-05-01T08:37:02.761Z,97044.21
2019-05-01T08:39:30.218Z,97044.17
2019-05-01T08:41:57.676Z,97046.27
2019-05-01T08:44:29.564Z,97044.58
2019-05-01T08:46:59.283Z,97043.41
2019-05-01T08:49:26.770Z,97041.19
2019-05-01T08:51:54.226Z,97044.00
2019-05-01T08:54:21.691Z,97044.42
2019-05-01T08:56:53.133Z,97044.40
2019-05-01T08:59:19.333Z,97043.66
2019-05-01T09:01:45.869Z,97037.53
2019-05-01T09:04:13.089Z,97043.29
2019-05-01T09:06:43.425Z,97036.75
2019-05-01T09:09:08.240Z,97040.73
2019-05-01T09:11:36.200Z,97035.39
2019-05-01T09:14:01.649Z,97044.75
2019-05-01T09:16:30.246Z,97038.91
2019-05-01T09:18:56.604Z,97035.94
2019-05-01T09:21:24.055Z,97036.89
2019-05-01T09:23:53.156Z,97031.66
2019-05-01T09:26:31.335Z,97034.37
2019-05-01T09:28:59.260Z,97030.77
2019-05-01T09:31:26.747Z,97029.59
2019-05-01T09:33:54.215Z,97025.39
2019-05-01T09:36:21.666Z,97029.87
2019-05-01T09:38:50.083Z,97028.34
2019-05-01T09:41:16.675Z,97028.14
2019-05-01T09:43:44.151Z,97024.45
2019-05-01T09:46:11.619Z,97023.25
2019-05-01T09:48:39.321Z,97020.47
2019-05-01T09:51:08.173Z,97025.25
2019-05-01T09:53:36.024Z,97026.35
2019-05-01T09:56:07.696Z,97027.95
2019-05-01T09:58:31.098Z,97017.53
2019-05-01T10:00:58.568Z,97017.34
2019-05-01T10:03:25.566Z,97017.09
2019-05-01T10:05:52.585Z,97016.48
2019-05-01T10:08:19.587Z,97017.39
2019-05-01T10:10:46.601Z,97021.73
2019-05-01T10:13:13.702Z,97016.30
2019-05-01T10:15:40.841Z,97006.68
2019-05-01T10:18:08.291Z,97011.03
2019-05-01T10:20:35.750Z,97003.35
2019-05-01T10:23:02.816Z,97000.88
2019-05-01T10:25:29.804Z,97004.16
2019-05-01T10:28:12.740Z,96991.20
2019-05-01T10:30:40.609Z,96992.98
2019-05-01T10:33:07.625Z,96993.07
2019-05-01T10:35:42.612Z,96994.02
2019-05-01T10:38:04.716Z,96987.55
2019-05-01T10:40:32.378Z,96982.83
2019-05-01T10:42:55.736Z,96979.44
2019-05-01T10:45:23.036Z,96979.84
2019-05-01T10:47:50.086Z,96978.48
2019-05-01T10:50:17.104Z,96979.97
2019-05-01T10:52:44.097Z,96975.80
2019-05-01T10:55:11.119Z,96981.03
2019-05-01T10:57:40.229Z,96973.16
2019-05-01T11:00:06.743Z,96978.28
2019-05-01T11:02:34.262Z,96961.78
2019-05-01T11:05:01.971Z,96965.95
2019-05-01T11:07:29.524Z,96962.74
2019-05-01T11:09:56.623Z,96960.00
2019-05-01T11:12:23.660Z,96957.52
2019-05-01T11:14:51.110Z,96956.44
2019-05-01T11:17:18.558Z,96945.90
2019-05-01T11:19:46.014Z,96947.84
2019-05-01T11:22:13.563Z,96942.06
2019-05-01T11:24:41.085Z,96939.69
2019-05-01T11:27:08.550Z,96939.22
2019-05-01T11:29:35.998Z,96940.27
2019-05-01T11:32:08.959Z,96929.42
2019-05-01T11:34:42.178Z,96928.50
2019-05-01T11:40:07.475Z,96926.50
2019-05-01T11:42:34.952Z,96925.20
2019-05-01T11:45:01.956Z,96925.00
2019-05-01T11:47:29.013Z,96919.78
2019-05-01T11:49:56.482Z,96918.48
2019-05-01T11:52:23.974Z,96912.73
2019-05-01T11:54:51.502Z,96910.16
2019-05-01T11:57:18.953Z,96913.95
2019-05-01T11:59:46.416Z,96912.13
2019-05-01T12:02:13.877Z,96908.53
2019-05-01T12:04:41.379Z,96908.09
2019-05-01T12:07:08.882Z,96901.42
2019-05-01T12:09:36.334Z,96898.02
2019-05-01T12:12:03.795Z,96895.61
2019-05-01T12:14:31.329Z,96898.27
2019-05-01T12:16:59.351Z,96897.62
2019-05-01T12:19:29.479Z,96894.97
2019-05-01T12:21:56.954Z,96892.27
2019-05-01T12:24:24.410Z,96897.39
2019-05-01T12:26:51.908Z,96895.12
2019-05-01T12:29:19.436Z,96893.98
2019-05-01T12:31:46.927Z,96888.09
2019-05-01T12:34:14.374Z,96886.64
2019-05-01T12:36:41.841Z,96886.80
2019-05-01T12:39:17.206Z,96884.86
2019-05-01T12:41:46.580Z,96886.54
2019-05-01T12:44:14.024Z,96885.61
2019-05-01T12:46:56.257Z,96875.33
2019-05-01T12:49:23.757Z,96882.47
2019-05-01T12:51:51.255Z,96873.55
2019-05-01T12:54:20.674Z,96875.78
2019-05-01T12:56:50.029Z,96871.20
2019-05-01T12:59:17.526Z,96869.70
2019-05-01T13:01:45.034Z,96860.67
2019-05-01T13:04:12.508Z,96855.09
2019-05-01T13:06:49.098Z,96853.58
2019-05-01T13:09:07.451Z,96854.92
2019-05-01T13:11:34.919Z,96846.77
2019-05-01T13:14:02.372Z,96847.03
2019-05-01T13:16:29.848Z,96848.54
2019-05-01T13:18:57.314Z,96842.84
2019-05-01T13:21:25.220Z,96842.55
2019-05-01T13:23:52.678Z,96844.47
2019-05-01T13:26:20.156Z,96839.36
2019-05-01T13:28:49.050Z,96835.47
2019-05-01T13:31:17.991Z,96834.80
2019-05-01T13:33:45.458Z,96839.95
2019-05-01T13:36:12.927Z,96832.52
2019-05-01T13:38:40.416Z,96826.23
2019-05-01T13:41:07.878Z,96829.41
2019-05-01T13:43:35.329Z,96828.02
2019-05-01T13:46:02.785Z,96824.26
2019-05-01T13:48:30.255Z,96813.50
2019-05-01T13:50:57.744Z,96815.81
2019-05-01T13:53:25.202Z,96810.00
2019-05-01T13:55:52.327Z,96811.41
2019-05-01T13:58:19.373Z,96800.59
2019-05-01T14:00:46.420Z,96806.10
2019-05-01T14:03:14.926Z,96803.38
2019-05-01T14:05:46.079Z,96803.09
2019-05-01T14:08:13.242Z,96803.19
2019-05-01T14:10:43.712Z,96800.72
2019-05-01T14:13:11.134Z,96798.09
2019-05-01T14:15:38.558Z,96799.17
2019-05-01T14:18:05.768Z,96795.41
2019-05-01T14:20:38.387Z,96800.48
2019-05-01T14:23:10.091Z,96791.13
2019-05-01T14:25:43.028Z,96787.83
2019-05-01T14:28:10.559Z,96782.83
2019-05-01T14:30:37.582Z,96782.23
2019-05-01T14:33:04.570Z,96772.20
2019-05-01T14:35:31.603Z,96775.00
2019-05-01T14:37:58.592Z,96774.30
2019-05-01T14:40:25.599Z,96771.45
2019-05-01T14:42:52.636Z,96775.34
2019-05-01T14:45:19.939Z,96771.98
2019-05-01T14:47:46.936Z,96766.56
2019-05-01T14:50:14.089Z,96763.20
2019-05-01T14:52:41.217Z,96761.01
2019-05-01T14:55:08.259Z,96754.48
2019-05-01T14:57:35.221Z,96757.42
2019-05-01T15:00:02.219Z,96755.92
2019-05-01T15:02:29.234Z,96755.11
2019-05-01T15:04:56.206Z,96752.88
2019-05-01T15:07:23.215Z,96758.03
2019-05-01T15:09:50.719Z,96756.05
2019-05-01T15:12:18.228Z,96756.13
2019-05-01T15:14:49.316Z,96752.81
2019-05-01T15:17:18.770Z,96752.88
2019-05-01T15:19:47.943Z,96755.40
2019-05-01T15:22:15.418Z,96749.06
2019-05-01T15:24:43.083Z,96749.46
2019-05-01T15:27:10.543Z,96752.45
2019-05-01T15:29:38.390Z,96752.36
2019-05-01T15:32:05.863Z,96749.22
2019-05-01T15:34:33.331Z,96753.42
2019-05-01T15:37:00.811Z,96747.61
2019-05-01T15:39:30.220Z,96741.16
2019-05-01T15:42:03.279Z,96739.92
2019-05-01T15:44:30.744Z,96739.11
2019-05-01T15:46:58.320Z,96742.34
2019-05-01T15:49:25.783Z,96737.50
2019-05-01T15:51:53.234Z,96736.98
2019-05-01T15:54:20.681Z,96738.52
2019-05-01T15:56:48.172Z,96731.83
2019-05-01T15:59:15.660Z,96737.44
2019-05-01T16:01:43.113Z,96731.77
2019-05-01T16:04:10.578Z,96727.25
2019-05-01T16:06:37.607Z,96729.36
2019-05-01T16:09:05.223Z,96728.28
2019-05-01T16:14:29.601Z,96730.47
2019-05-01T16:16:56.613Z,96730.22
2019-05-01T16:19:23.619Z,96728.69
2019-05-01T16:21:50.639Z,96730.19
2019-05-01T16:24:17.652Z,96726.55
2019-05-01T16:26:44.645Z,96729.45
2019-05-01T16:29:11.639Z,96722.27
2019-05-01T16:31:38.644Z,96724.11
2019-05-01T16:34:05.631Z,96718.41
2019-05-01T16:36:32.848Z,96725.52
2019-05-01T16:39:05.844Z,96727.11
2019-05-01T16:41:32.909Z,96724.26
2019-05-01T16:43:59.929Z,96723.58
2019-05-01T16:46:26.932Z,96720.32
2019-05-01T16:48:53.971Z,96721.27
2019-05-01T16:51:21.077Z,96719.76
2019-05-01T16:53:48.058Z,96716.80
2019-05-01T16:56:15.054Z,96719.74
2019-05-01T16:58:42.135Z,96712.72
2019-05-01T17:01:09.130Z,96720.14
2019-05-01T17:03:51.006Z,96719.59
2019-05-01T17:06:23.236Z,96714.59
2019-05-01T17:08:52.805Z,96714.16
2019-05-01T17:11:19.802Z,96713.58
2019-05-01T17:13:46.795Z,96715.59
2019-05-01T17:16:13.785Z,96719.31
2019-05-01T17:18:40.782Z,96718.22
2019-05-01T17:21:07.784Z,96717.84
2019-05-01T17:23:34.775Z,96722.39
2019-05-01T17:26:01.791Z,96713.84
2019-05-01T17:28:28.777Z,96722.30
2019-05-01T17:30:55.822Z,96725.36
2019-05-01T17:33:22.844Z,96725.63
2019-05-01T17:35:49.845Z,96721.44
2019-05-01T17:38:16.858Z,96723.41
2019-05-01T17:40:47.361Z,96726.23
2019-05-01T17:43:13.517Z,96727.19
2019-05-01T17:45:37.970Z,96725.38
2019-05-01T17:48:04.951Z,96727.58
2019-05-01T17:50:32.414Z,96730.91
2019-05-01T17:52:59.880Z,96734.92
2019-05-01T17:55:26.974Z,96731.59
2019-05-01T17:57:54.788Z,96741.55
2019-05-01T18:00:37.424Z,96739.45
2019-05-01T18:03:10.022Z,96737.02
2019-05-01T18:05:42.323Z,96733.98
2019-05-01T18:08:09.959Z,96735.11
2019-05-01T18:10:39.704Z,96736.42
2019-05-01T18:13:08.082Z,96731.66
2019-05-01T18:15:38.702Z,96739.78
2019-05-01T18:18:06.182Z,96737.77
2019-05-01T18:20:41.452Z,96739.39
2019-05-01T18:23:12.524Z,96743.78
2019-05-01T18:25:42.126Z,96746.91
2019-05-01T18:28:15.181Z,96742.20
2019-05-01T18:30:42.822Z,96746.73
2019-05-01T18:33:10.313Z,96739.27
2019-05-01T18:35:37.788Z,96739.33
2019-05-01T18:38:12.775Z,96738.73
2019-05-01T18:40:38.608Z,96737.69
2019-05-01T18:43:06.076Z,96744.73
2019-05-01T18:48:27.189Z,96751.02
2019-05-01T18:50:56.309Z,96744.45
2019-05-01T18:53:22.387Z,96755.80
2019-05-01T18:55:50.184Z,96753.39
2019-05-01T18:58:17.844Z,96748.22
2019-05-01T19:00:45.306Z,96761.75
2019-05-01T19:03:12.815Z,96760.42
2019-05-01T19:05:43.112Z,96756.07
2019-05-01T19:08:07.820Z,96760.41
2019-05-01T19:10:35.275Z,96762.50
2019-05-01T19:13:02.758Z,96761.91
2019-05-01T19:15:30.359Z,96761.59
2019-05-01T19:17:57.833Z,96771.38
2019-05-01T19:20:25.369Z,96766.97
2019-05-01T19:22:52.826Z,96768.70
2019-05-01T19:25:20.364Z,96772.34
2019-05-01T19:27:47.873Z,96774.91
2019-05-01T19:30:16.825Z,96779.28
2019-05-01T19:32:42.822Z,96779.34
2019-05-01T19:35:10.339Z,96778.39
2019-05-01T19:37:37.817Z,96786.06
2019-05-01T19:40:05.462Z,96785.34
2019-05-01T19:42:32.918Z,96780.28
2019-05-01T19:45:00.376Z,96782.56
2019-05-01T19:47:27.936Z,96782.76
2019-05-01T19:49:55.420Z,96785.19
2019-05-01T19:52:22.970Z,96794.83
2019-05-01T19:54:50.466Z,96799.67
2019-05-01T19:57:17.926Z,96804.59
2019-05-01T19:59:45.387Z,96801.47
2019-05-01T20:02:12.889Z,96804.53
2019-05-01T20:04:40.377Z,96803.48
2019-05-01T20:07:10.543Z,96803.77
2019-05-01T20:09:35.449Z,96806.03
2019-05-01T20:12:02.887Z,96806.32
2019-05-01T20:14:30.339Z,96807.66
2019-05-01T20:16:57.868Z,96807.50
2019-05-01T20:19:25.334Z,96805.64
2019-05-01T20:21:52.843Z,96806.67
2019-05-01T20:24:20.388Z,96799.94
2019-05-01T20:26:49.827Z,96804.50
2019-05-01T20:29:17.760Z,96805.05
2019-05-01T20:31:45.733Z,96806.86
2019-05-01T20:34:17.365Z,96805.74
2019-05-01T20:36:39.739Z,96807.81
2019-05-01T20:39:07.183Z,96809.13
2019-05-01T20:41:34.644Z,96811.02
2019-05-01T20:44:02.187Z,96807.11
2019-05-01T20:46:29.767Z,96811.86
2019-05-01T20:49:01.334Z,96809.34
2019-05-01T20:51:25.637Z,96812.17
2019-05-01T20:53:53.194Z,96809.43
2019-05-01T20:56:23.565Z,96813.16
2019-05-01T20:58:51.040Z,96813.16
2019-05-01T21:01:18.495Z,96808.23
2019-05-01T21:03:52.506Z,96814.45
2019-05-01T21:06:19.041Z,96825.31
2019-05-01T21:08:48.755Z,96822.98
2019-05-01T21:11:16.620Z,96816.77
2019-05-01T21:13:44.096Z,96825.48
2019-05-01T21:16:11.760Z,96811.81
2019-05-01T21:18:39.212Z,96817.60
2019-05-01T21:21:06.680Z,96808.36
2019-05-01T21:23:34.163Z,96812.80
2019-05-01T21:26:03.733Z,96808.47
2019-05-01T21:28:29.184Z,96808.63
2019-05-01T21:30:56.629Z,96808.55
2019-05-01T21:33:24.114Z,96817.11
2019-05-01T21:35:53.307Z,96815.65
2019-05-01T21:38:19.081Z,96816.43
2019-05-01T21:40:46.584Z,96809.54
2019-05-01T21:43:14.043Z,96806.19
2019-05-01T21:45:43.237Z,96815.53
2019-05-01T21:48:09.142Z,96808.52
2019-05-01T21:50:36.611Z,96809.59
2019-05-01T21:53:06.842Z,96809.13
2019-05-01T21:55:32.081Z,96812.38
2019-05-01T21:57:59.040Z,96816.09
2019-05-01T22:00:26.546Z,96815.80
2019-05-01T22:02:54.067Z,96811.79
2019-05-01T22:05:21.538Z,96815.19
2019-05-01T22:07:48.992Z,96817.40
2019-05-01T22:10:16.469Z,96814.97
2019-05-01T22:12:48.512Z,96819.87
2019-05-01T22:15:14.117Z,96817.68
2019-05-01T22:17:45.158Z,96812.67
2019-05-01T22:20:13.083Z,96820.80
2019-05-01T22:22:50.487Z,96824.94
2019-05-01T22:25:20.399Z,96820.66
2019-05-01T22:27:47.839Z,96825.66
2019-05-01T22:30:20.820Z,96830.37
2019-05-01T22:32:50.819Z,96832.29
2019-05-01T22:35:18.260Z,96833.83
2019-05-01T22:37:45.735Z,96829.54
2019-05-01T22:40:13.203Z,96834.72
2019-05-01T22:42:40.651Z,96836.27
2019-05-01T22:45:08.115Z,96833.45
2019-05-01T22:47:35.618Z,96834.99
2019-05-01T22:50:03.094Z,96835.41
2019-05-01T22:52:30.552Z,96832.84
2019-05-01T22:54:57.990Z,96842.58
2019-05-01T22:57:25.451Z,96846.36
2019-05-01T22:59:52.944Z,96848.77
2019-05-01T23:02:24.129Z,96847.09
2019-05-01T23:04:52.049Z,96851.83
2019-05-01T23:07:18.595Z,96850.22
2019-05-01T23:09:44.886Z,96850.22
2019-05-01T23:12:12.543Z,96854.48
2019-05-01T23:14:40.326Z,96844.89
2019-05-01T23:17:09.496Z,96850.09
2019-05-01T23:19:37.129Z,96845.92
2019-05-01T23:22:04.696Z,96842.34
2019-05-01T23:24:32.204Z,96843.28
2019-05-01T23:26:59.681Z,96845.63
2019-05-01T23:29:27.177Z,96842.76
2019-05-01T23:31:54.677Z,96841.09
2019-05-01T23:34:26.248Z,96843.36
2019-05-01T23:36:49.615Z,96841.70
2019-05-01T23:39:17.073Z,96839.88
2019-05-01T23:41:46.788Z,96837.91
2019-05-01T23:44:12.018Z,96842.89
2019-05-01T23:46:39.477Z,96839.64
2019-05-01T23:49:06.943Z,96833.50
2019-05-01T23:51:34.410Z,96835.90
2019-05-01T23:54:01.865Z,96834.25
2019-05-01T23:56:31.117Z,96835.80
2019-05-01T23:58:56.797Z,96837.47
